createdAt,value
2023-05-02T00:02:21.945Z,19.70
2023-05-02T00:04:49.299Z,18.83
2023-05-02T00:07:16.700Z,20.80
2023-05-02T00:09:45.223Z,20.10
2023-05-02T00:12:12.588Z,19.48
2023-05-02T00:14:39.994Z,18.40
2023-05-02T00:17:07.399Z,19.77
2023-05-02T00:19:40.242Z,18.20
2023-05-02T00:22:07.530Z,18.85
2023-05-02T00:24:34.794Z,17.50
2023-05-02T00:27:02.218Z,19.98
2023-05-02T00:29:29.533Z,17.17
2023-05-02T00:31:58.121Z,18.45
2023-05-02T00:34:30.937Z,19.98
2023-05-02T00:36:58.534Z,17.75
2023-05-02T00:39:26.071Z,17.50
2023-05-02T00:42:00.332Z,19.52
2023-05-02T00:44:28.291Z,19.55
2023-05-02T00:46:57.187Z,19.92
2023-05-02T00:49:24.953Z,21.50
2023-05-02T00:51:53.680Z,16.95
2023-05-02T00:54:21.094Z,18.38
2023-05-02T00:56:48.788Z,18.92
2023-05-02T00:59:17.027Z,16.95
2023-05-02T01:01:56.408Z,19.80
2023-05-02T01:04:41.833Z,20.42
2023-05-02T01:07:41.099Z,18.13
2023-05-02T01:10:08.818Z,17.75
2023-05-02T01:12:52.631Z,19.67
2023-05-02T01:15:22.809Z,19.08
2023-05-02T01:17:52.464Z,17.23
2023-05-02T01:20:24.187Z,17.67
2023-05-02T01:22:52.436Z,17.97
2023-05-02T01:25:28.290Z,18.45
2023-05-02T01:28:18.247Z,15.02
2023-05-02T01:30:47.308Z,19.83
2023-05-02T01:33:17.791Z,19.67
2023-05-02T01:35:47.222Z,18.42
2023-05-02T01:38:16.823Z,19.05
2023-05-02T01:40:47.151Z,20.48
2023-05-02T01:43:15.927Z,20.48
2023-05-02T01:45:46.047Z,17.88
2023-05-02T01:48:15.873Z,16.02
2023-05-02T01:50:45.882Z,17.20
2023-05-02T01:53:14.849Z,18.23
2023-05-02T01:55:45.484Z,18.17
2023-05-02T01:58:15.437Z,17.25
2023-05-02T02:00:45.852Z,17.98
2023-05-02T02:03:15.310Z,17.30
2023-05-02T02:05:43.321Z,18.88
2023-05-02T02:08:10.761Z,17.65
2023-05-02T02:10:46.384Z,18.80
2023-05-02T02:13:37.136Z,19.92
2023-05-02T02:16:07.198Z,17.00
2023-05-02T02:18:39.097Z,19.80
2023-05-02T02:21:11.485Z,20.33
2023-05-02T02:23:43.555Z,17.50
2023-05-02T02:26:13.797Z,18.48
2023-05-02T02:28:42.958Z,17.27
2023-05-02T02:31:10.396Z,19.80
2023-05-02T02:33:38.453Z,17.50
2023-05-02T02:36:23.792Z,19.05
2023-05-02T02:39:18.445Z,20.45
2023-05-02T02:42:18.940Z,20.48
2023-05-02T02:45:19.893Z,20.30
2023-05-02T02:48:03.551Z,20.45
2023-05-02T02:50:36.901Z,20.05
2023-05-02T02:53:12.070Z,18.80
2023-05-02T02:55:42.488Z,19.85
2023-05-02T02:58:46.916Z,18.20
2023-05-02T03:01:22.124Z,17.70
2023-05-02T03:03:51.399Z,18.90
2023-05-02T03:06:20.565Z,21.23
2023-05-02T03:08:48.679Z,19.10
2023-05-02T03:11:19.748Z,17.73
2023-05-02T03:13:47.996Z,19.52
2023-05-02T03:16:39.502Z,18.08
2023-05-02T03:19:10.968Z,20.35
2023-05-02T03:21:39.130Z,20.08
2023-05-02T03:24:19.212Z,17.75
2023-05-02T03:26:48.408Z,19.02
2023-05-02T03:29:19.345Z,21.00
2023-05-02T03:31:46.965Z,22.90
2023-05-02T03:34:14.650Z,21.55
2023-05-02T03:36:43.824Z,20.95
2023-05-02T03:39:11.206Z,20.33
2023-05-02T03:41:39.089Z,19.38
2023-05-02T03:44:10.022Z,19.60
2023-05-02T03:46:37.953Z,20.45
2023-05-02T03:49:09.354Z,20.13
2023-05-02T03:51:37.238Z,20.17
2023-05-02T03:54:04.603Z,28.88
2023-05-02T03:56:33.582Z,20.40
2023-05-02T03:59:15.148Z,19.17
2023-05-02T04:01:43.283Z,21.75
2023-05-02T04:04:13.282Z,21.35
2023-05-02T04:06:47.632Z,19.58
2023-05-02T04:09:16.107Z,19.27
2023-05-02T04:11:50.477Z,19.65
2023-05-02T04:14:19.405Z,18.42
2023-05-02T04:16:51.307Z,19.50
2023-05-02T04:19:24.894Z,17.73
2023-05-02T04:21:52.275Z,18.02
2023-05-02T04:24:19.661Z,17.83
2023-05-02T04:26:49.051Z,17.77
2023-05-02T04:29:16.605Z,20.67
2023-05-02T04:31:44.921Z,19.83
2023-05-02T04:34:13.765Z,19.13
2023-05-02T04:36:48.402Z,19.33
2023-05-02T04:39:21.280Z,19.10
2023-05-02T04:42:00.937Z,19.40
2023-05-02T04:44:30.130Z,21.60
2023-05-02T04:46:58.880Z,20.35
2023-05-02T04:49:26.886Z,22.17
2023-05-02T04:51:54.342Z,19.90
2023-05-02T04:54:23.140Z,20.67
2023-05-02T04:56:50.453Z,22.67
2023-05-02T04:59:18.264Z,22.13
2023-05-02T05:01:46.134Z,19.52
2023-05-02T05:04:14.095Z,20.25
2023-05-02T05:06:41.885Z,21.27
2023-05-02T05:09:09.484Z,20.20
2023-05-02T05:11:38.818Z,19.85
2023-05-02T05:14:07.247Z,20.13
2023-05-02T05:16:38.209Z,21.23
2023-05-02T05:19:05.850Z,22.83
2023-05-02T05:21:33.636Z,19.88
2023-05-02T05:24:02.943Z,19.35
2023-05-02T05:26:30.495Z,24.33
2023-05-02T05:28:58.352Z,22.13
2023-05-02T05:31:28.945Z,21.33
2023-05-02T05:33:59.640Z,19.15
2023-05-02T05:36:28.058Z,21.85
2023-05-02T05:38:55.532Z,21.33
2023-05-02T05:41:23.365Z,18.30
2023-05-02T05:43:56.507Z,20.38
2023-05-02T05:46:25.835Z,20.10
2023-05-02T05:48:53.496Z,21.65
2023-05-02T05:51:21.470Z,19.55
2023-05-02T05:53:49.700Z,20.23
2023-05-02T05:56:18.392Z,21.30
2023-05-02T05:58:55.612Z,21.88
2023-05-02T06:01:23.209Z,21.10
2023-05-02T06:03:51.226Z,21.63
2023-05-02T06:06:19.639Z,18.10
2023-05-02T06:08:47.400Z,20.40
2023-05-02T06:11:15.234Z,18.92
2023-05-02T06:13:42.575Z,17.10
2023-05-02T06:16:10.927Z,22.45
2023-05-02T06:18:38.444Z,19.38
2023-05-02T06:21:07.771Z,20.38
2023-05-02T06:23:36.954Z,20.55
2023-05-02T06:26:05.425Z,20.65
2023-05-02T06:28:32.973Z,20.42
2023-05-02T06:31:06.063Z,22.45
2023-05-02T06:33:34.587Z,18.95
2023-05-02T06:36:02.423Z,21.63
2023-05-02T06:38:30.216Z,18.30
2023-05-02T06:40:57.612Z,20.50
2023-05-02T06:43:25.035Z,19.50
2023-05-02T06:45:56.516Z,23.63
2023-05-02T06:48:23.988Z,18.27
2023-05-02T06:50:54.459Z,20.45
2023-05-02T06:53:21.706Z,19.02
2023-05-02T06:55:49.738Z,20.77
2023-05-02T06:58:17.203Z,20.63
2023-05-02T07:00:44.858Z,22.42
2023-05-02T07:03:13.014Z,19.02
2023-05-02T07:05:41.040Z,18.30
2023-05-02T07:08:09.544Z,18.35
2023-05-02T07:10:38.875Z,18.45
2023-05-02T07:13:06.572Z,18.27
2023-05-02T07:15:34.489Z,18.65
2023-05-02T07:18:03.018Z,19.27
2023-05-02T07:20:30.965Z,40.10
2023-05-02T07:22:58.583Z,25.00
2023-05-02T07:25:26.372Z,21.25
2023-05-02T07:27:54.052Z,24.80
2023-05-02T07:30:21.834Z,20.67
2023-05-02T07:32:49.471Z,21.70
2023-05-02T07:35:17.346Z,18.65
2023-05-02T07:37:45.136Z,17.92
2023-05-02T07:40:12.972Z,19.50
2023-05-02T07:42:42.453Z,17.52
2023-05-02T07:45:10.738Z,16.15
2023-05-02T07:47:38.534Z,17.58
2023-05-02T07:50:07.301Z,19.02
2023-05-02T07:52:35.741Z,16.65
2023-05-02T07:55:03.302Z,18.50
2023-05-02T07:57:31.205Z,22.40
2023-05-02T07:59:59.558Z,21.58
2023-05-02T08:02:27.952Z,20.60
2023-05-02T08:04:55.983Z,20.00
2023-05-02T08:07:23.835Z,19.60
2023-05-02T08:09:51.702Z,25.35
2023-05-02T08:12:19.843Z,20.35
2023-05-02T08:14:47.789Z,16.63
2023-05-02T08:17:16.246Z,41.15
2023-05-02T08:19:44.615Z,20.85
2023-05-02T08:22:12.502Z,17.73
2023-05-02T08:24:40.232Z,17.95
2023-05-02T08:27:08.628Z,18.52
2023-05-02T08:29:36.897Z,16.15
2023-05-02T08:32:04.884Z,18.05
2023-05-02T08:34:34.152Z,17.92
2023-05-02T08:37:02.111Z,13.50
2023-05-02T08:39:34.217Z,13.13
2023-05-02T08:42:01.424Z,14.35
2023-05-02T08:44:29.088Z,16.20
2023-05-02T08:46:57.666Z,12.57
2023-05-02T08:49:27.746Z,16.33
2023-05-02T08:51:56.820Z,14.25
2023-05-02T08:54:25.923Z,11.95
2023-05-02T08:56:54.708Z,15.93
2023-05-02T08:59:22.150Z,12.07
2023-05-02T09:02:06.495Z,15.02
2023-05-02T09:04:38.816Z,13.02
2023-05-02T09:07:06.583Z,12.55
2023-05-02T09:09:34.776Z,13.18
2023-05-02T09:12:02.777Z,15.90
2023-05-02T09:14:30.325Z,14.73
2023-05-02T09:17:01.577Z,12.77
2023-05-02T09:19:29.084Z,12.70
2023-05-02T09:22:02.854Z,12.50
2023-05-02T09:24:30.258Z,14.02
2023-05-02T09:27:05.601Z,13.52
2023-05-02T09:29:38.253Z,13.02
2023-05-02T09:32:07.809Z,12.95
2023-05-02T09:34:37.576Z,13.30
2023-05-02T09:37:05.859Z,13.77
2023-05-02T09:39:33.300Z,13.45
2023-05-02T09:42:03.657Z,13.35
2023-05-02T09:44:38.935Z,13.30
2023-05-02T09:47:08.754Z,11.52
2023-05-02T09:49:47.561Z,13.77
2023-05-02T09:52:17.696Z,13.98
2023-05-02T09:54:47.088Z,14.35
2023-05-02T09:57:14.735Z,11.88
2023-05-02T09:59:42.490Z,12.82
2023-05-02T10:02:11.774Z,12.15
2023-05-02T10:04:40.602Z,14.90
2023-05-02T10:07:10.944Z,14.20
2023-05-02T10:09:43.722Z,14.60
2023-05-02T10:12:15.312Z,14.95
2023-05-02T10:14:50.990Z,13.02
2023-05-02T10:17:28.356Z,14.23
2023-05-02T10:20:06.495Z,13.20
2023-05-02T10:22:35.513Z,14.35
2023-05-02T10:25:04.110Z,14.35
2023-05-02T10:27:32.886Z,13.30
2023-05-02T10:30:01.176Z,16.90
2023-05-02T10:32:29.857Z,14.18
2023-05-02T10:34:57.945Z,12.85
2023-05-02T10:37:30.144Z,13.73
2023-05-02T10:39:58.879Z,18.60
2023-05-02T10:42:27.763Z,12.60
2023-05-02T10:44:55.116Z,14.80
2023-05-02T10:47:23.576Z,11.68
2023-05-02T10:50:01.468Z,13.02
2023-05-02T10:52:35.901Z,12.57
2023-05-02T10:55:16.481Z,10.93
2023-05-02T10:57:59.255Z,11.00
2023-05-02T11:00:30.284Z,10.25
2023-05-02T11:02:57.989Z,12.18
2023-05-02T11:05:26.908Z,12.85
2023-05-02T11:08:16.820Z,12.80
2023-05-02T11:10:46.556Z,11.07
2023-05-02T11:13:14.198Z,10.57
2023-05-02T11:15:41.536Z,10.18
2023-05-02T11:18:13.325Z,10.50
2023-05-02T11:20:45.061Z,10.40
2023-05-02T11:23:15.645Z,11.45
2023-05-02T11:25:45.646Z,9.63
2023-05-02T11:28:37.969Z,10.52
2023-05-02T11:31:06.892Z,12.65
2023-05-02T11:33:34.401Z,10.55
2023-05-02T11:36:01.968Z,9.63
2023-05-02T11:38:38.604Z,10.77
2023-05-02T11:41:06.031Z,11.07
2023-05-02T11:43:33.453Z,8.50
2023-05-02T11:46:02.312Z,9.70
2023-05-02T11:48:31.896Z,10.55
2023-05-02T11:51:05.566Z,9.10
2023-05-02T11:53:33.897Z,10.88
2023-05-02T11:56:04.236Z,11.85
2023-05-02T11:58:34.264Z,13.38
2023-05-02T12:01:28.470Z,11.38
2023-05-02T12:04:08.055Z,10.48
2023-05-02T12:06:35.933Z,10.93
2023-05-02T12:09:13.127Z,12.30
2023-05-02T12:11:41.149Z,12.43
2023-05-02T12:14:08.566Z,11.07
2023-05-02T12:16:36.188Z,10.93
2023-05-02T12:19:04.924Z,10.52
2023-05-02T12:21:33.520Z,9.52
2023-05-02T12:24:04.357Z,11.90
2023-05-02T12:26:33.222Z,8.93
2023-05-02T12:29:02.837Z,9.73
2023-05-02T12:31:32.307Z,10.63
2023-05-02T12:34:01.434Z,9.35
2023-05-02T12:36:29.605Z,8.52
2023-05-02T12:39:02.732Z,11.50
2023-05-02T12:41:35.477Z,6.78
2023-05-02T12:44:03.401Z,6.88
2023-05-02T12:46:32.353Z,7.80
2023-05-02T12:49:10.916Z,7.38
2023-05-02T12:51:42.328Z,7.72
2023-05-02T12:54:21.007Z,8.63
2023-05-02T12:56:49.072Z,8.00
2023-05-02T12:59:33.396Z,10.30
2023-05-02T13:02:00.763Z,8.68
2023-05-02T13:04:40.461Z,9.52
2023-05-02T13:07:08.212Z,8.65
2023-05-02T13:09:35.564Z,8.88
2023-05-02T13:12:04.140Z,6.80
2023-05-02T13:14:31.607Z,5.53
2023-05-02T13:16:59.436Z,6.60
2023-05-02T13:19:31.350Z,4.55
2023-05-02T13:21:59.085Z,4.88
2023-05-02T13:24:26.586Z,9.25
2023-05-02T13:26:53.847Z,6.40
2023-05-02T13:29:21.260Z,6.10
2023-05-02T13:31:48.530Z,4.70
2023-05-02T13:34:15.889Z,4.78
2023-05-02T13:36:46.675Z,5.10
2023-05-02T13:39:14.536Z,6.15
2023-05-02T13:41:43.060Z,6.18
2023-05-02T13:44:10.643Z,7.90
2023-05-02T13:46:38.697Z,6.35
2023-05-02T13:49:07.268Z,7.35
2023-05-02T13:51:34.649Z,6.38
2023-05-02T13:54:02.691Z,8.80
2023-05-02T13:56:29.928Z,7.38
2023-05-02T13:58:57.875Z,6.90
2023-05-02T14:01:29.975Z,7.57
2023-05-02T14:03:57.453Z,6.25
2023-05-02T14:06:25.544Z,7.30
2023-05-02T14:08:53.204Z,6.20
2023-05-02T14:11:22.245Z,5.93
2023-05-02T14:13:49.597Z,5.55
2023-05-02T14:16:17.093Z,4.72
2023-05-02T14:18:45.846Z,4.85
2023-05-02T14:21:13.109Z,5.70
2023-05-02T14:23:41.522Z,5.30
2023-05-02T14:26:09.238Z,5.53
2023-05-02T14:28:38.476Z,5.28
2023-05-02T14:31:07.537Z,4.82
2023-05-02T14:33:36.865Z,4.97
2023-05-02T14:36:08.197Z,5.00
2023-05-02T14:38:36.109Z,5.20
2023-05-02T14:41:04.374Z,5.00
2023-05-02T14:43:35.273Z,4.80
2023-05-02T14:46:03.093Z,4.60
2023-05-02T14:48:30.825Z,4.80
2023-05-02T14:51:03.957Z,4.80
2023-05-02T14:53:33.502Z,5.28
2023-05-02T14:58:33.427Z,5.00
2023-05-02T15:01:03.118Z,4.78
2023-05-02T15:03:30.927Z,5.40
2023-05-02T15:05:59.285Z,5.47
2023-05-02T15:08:27.227Z,5.10
2023-05-02T15:10:59.329Z,5.07
2023-05-02T15:13:28.367Z,4.90
2023-05-02T15:15:58.257Z,5.57
2023-05-02T15:18:27.649Z,5.50
2023-05-02T15:20:55.754Z,5.22
2023-05-02T15:23:25.465Z,5.28
2023-05-02T15:25:53.155Z,4.90
2023-05-02T15:28:20.533Z,5.10
2023-05-02T15:30:56.897Z,5.05
2023-05-02T15:33:25.514Z,5.60
2023-05-02T15:35:58.508Z,6.03
2023-05-02T15:38:28.617Z,5.70
2023-05-02T15:41:00.158Z,5.28
2023-05-02T15:43:28.388Z,5.25
2023-05-02T15:45:58.294Z,4.78
2023-05-02T15:51:06.616Z,4.90
2023-05-02T15:53:36.397Z,5.30
2023-05-02T15:56:04.722Z,5.22
2023-05-02T15:58:32.157Z,5.40
2023-05-02T16:01:00.315Z,4.93
2023-05-02T16:03:27.948Z,5.45
2023-05-02T16:05:57.133Z,5.13
2023-05-02T16:08:24.790Z,5.05
2023-05-02T16:10:53.650Z,6.35
2023-05-02T16:13:22.380Z,5.23
2023-05-02T16:15:52.657Z,4.82
2023-05-02T16:18:20.774Z,6.68
2023-05-02T16:20:50.560Z,5.85
2023-05-02T16:23:18.446Z,5.72
2023-05-02T16:25:46.905Z,6.30
2023-05-02T16:28:14.702Z,6.10
2023-05-02T16:30:43.816Z,5.93
2023-05-02T16:33:11.763Z,6.35
2023-05-02T16:35:39.358Z,6.05
2023-05-02T16:38:07.488Z,6.30
2023-05-02T16:40:35.409Z,6.05
2023-05-02T16:43:03.801Z,7.78
2023-05-02T16:45:32.054Z,6.30
2023-05-02T16:47:59.919Z,7.00
2023-05-02T16:50:30.006Z,5.85
2023-05-02T16:52:59.048Z,6.30
2023-05-02T16:55:26.642Z,6.20
2023-05-02T16:57:56.193Z,7.05
2023-05-02T17:00:24.730Z,6.15
2023-05-02T17:02:55.669Z,6.47
2023-05-02T17:05:23.914Z,6.63
2023-05-02T17:07:55.229Z,6.47
2023-05-02T17:12:51.992Z,7.32
2023-05-02T17:15:20.075Z,7.15
2023-05-02T17:17:47.590Z,7.22
2023-05-02T17:20:17.461Z,7.22
2023-05-02T17:22:45.663Z,7.28
2023-05-02T17:25:14.300Z,8.43
2023-05-02T17:27:42.002Z,7.40
2023-05-02T17:30:14.597Z,9.82
2023-05-02T17:32:43.935Z,8.50
2023-05-02T17:35:14.284Z,9.20
2023-05-02T17:37:41.578Z,9.07
2023-05-02T17:40:09.439Z,10.95
2023-05-02T17:42:36.793Z,10.43
2023-05-02T17:45:05.286Z,11.18
2023-05-02T17:47:32.693Z,9.27
2023-05-02T17:50:02.805Z,9.38
2023-05-02T17:52:34.893Z,10.07
2023-05-02T17:57:30.736Z,9.35
2023-05-02T17:59:59.875Z,11.05
2023-05-02T18:02:27.909Z,9.65
2023-05-02T18:04:55.387Z,10.50
2023-05-02T18:07:29.109Z,10.10
2023-05-02T18:09:57.584Z,9.63
2023-05-02T18:12:24.998Z,11.68
2023-05-02T18:14:53.586Z,7.65
2023-05-02T18:17:21.550Z,7.82
2023-05-02T18:19:50.706Z,8.75
2023-05-02T18:22:21.612Z,9.20
2023-05-02T18:24:53.598Z,9.00
2023-05-02T18:29:48.485Z,8.30
2023-05-02T18:32:15.792Z,11.00
2023-05-02T18:34:43.245Z,7.38
2023-05-02T18:37:11.507Z,8.27
2023-05-02T18:39:38.936Z,8.48
2023-05-02T18:42:06.378Z,7.90
2023-05-02T18:44:33.805Z,11.07
2023-05-02T18:47:01.216Z,8.93
2023-05-02T18:49:28.651Z,10.55
2023-05-02T18:51:55.996Z,10.63
2023-05-02T18:54:24.421Z,8.32
2023-05-02T18:56:51.835Z,10.43
2023-05-02T18:59:19.225Z,10.10
2023-05-02T19:01:48.644Z,9.60
2023-05-02T19:04:16.095Z,9.02
2023-05-02T19:06:43.644Z,11.75
2023-05-02T19:09:13.770Z,12.80
2023-05-02T19:11:44.118Z,9.77
2023-05-02T19:14:12.050Z,9.07
2023-05-02T19:16:40.656Z,12.82
2023-05-02T19:19:08.642Z,11.90
2023-05-02T19:21:36.440Z,11.20
2023-05-02T19:24:04.456Z,11.55
2023-05-02T19:26:32.177Z,12.10
2023-05-02T19:28:59.438Z,10.98
2023-05-02T19:31:27.133Z,11.38
2023-05-02T19:33:55.092Z,12.55
2023-05-02T19:36:24.110Z,9.80
2023-05-02T19:38:53.919Z,10.27
2023-05-02T19:41:22.685Z,9.40
2023-05-02T19:43:51.454Z,10.15
2023-05-02T19:46:22.297Z,9.27
2023-05-02T19:48:51.485Z,11.55
2023-05-02T19:51:27.623Z,10.05
2023-05-02T19:53:55.176Z,10.05
2023-05-02T19:56:26.024Z,9.40
2023-05-02T19:58:54.171Z,12.85
2023-05-02T20:01:23.602Z,9.27
2023-05-02T20:03:51.264Z,11.48
2023-05-02T20:06:19.602Z,8.85
2023-05-02T20:08:49.729Z,9.95
2023-05-02T20:11:17.389Z,7.88
2023-05-02T20:13:46.092Z,8.48
2023-05-02T20:16:14.524Z,7.47
2023-05-02T20:18:45.173Z,7.78
2023-05-02T20:21:13.540Z,8.05
2023-05-02T20:23:43.975Z,10.57
2023-05-02T20:26:12.083Z,10.10
2023-05-02T20:28:40.542Z,7.18
2023-05-02T20:31:08.598Z,8.57
2023-05-02T20:33:44.651Z,7.60
2023-05-02T20:36:15.003Z,7.50
2023-05-02T20:38:43.103Z,6.72
2023-05-02T20:41:13.016Z,10.55
2023-05-02T20:43:46.224Z,15.52
2023-05-02T20:46:16.731Z,10.60
2023-05-02T20:48:45.460Z,9.05
2023-05-02T20:51:14.061Z,9.20
2023-05-02T20:53:44.950Z,6.97
2023-05-02T20:56:12.899Z,12.38
2023-05-02T20:58:40.341Z,9.32
2023-05-02T21:01:07.733Z,8.05
2023-05-02T21:03:39.498Z,7.05
2023-05-02T21:08:38.120Z,8.45
2023-05-02T21:11:17.442Z,9.88
2023-05-02T21:13:44.863Z,9.02
2023-05-02T21:16:18.538Z,7.80
2023-05-02T21:18:50.274Z,9.75
2023-05-02T21:21:18.915Z,7.80
2023-05-02T21:23:46.899Z,6.72
2023-05-02T21:26:14.454Z,7.70
2023-05-02T21:28:42.457Z,6.38
2023-05-02T21:31:11.175Z,6.93
2023-05-02T21:33:43.998Z,9.77
2023-05-02T21:36:11.516Z,9.18
2023-05-02T21:38:39.407Z,9.07
2023-05-02T21:41:12.039Z,8.57
2023-05-02T21:43:41.041Z,7.45
2023-05-02T21:46:11.909Z,7.63
2023-05-02T21:48:40.391Z,8.60
2023-05-02T21:51:22.922Z,8.32
2023-05-02T21:53:52.699Z,7.53
2023-05-02T21:56:20.952Z,6.55
2023-05-02T21:58:51.653Z,7.70
2023-05-02T22:01:19.345Z,6.70
2023-05-02T22:03:49.766Z,8.13
2023-05-02T22:06:17.750Z,10.30
2023-05-02T22:08:45.319Z,8.52
2023-05-02T22:11:13.183Z,7.72
2023-05-02T22:13:41.081Z,8.27
2023-05-02T22:16:09.937Z,8.88
2023-05-02T22:18:39.922Z,8.52
2023-05-02T22:21:08.336Z,8.23
2023-05-02T22:23:39.644Z,7.30
2023-05-02T22:26:11.837Z,9.00
2023-05-02T22:28:39.916Z,8.10
2023-05-02T22:31:09.036Z,8.07
2023-05-02T22:33:37.379Z,7.95
2023-05-02T22:36:05.507Z,11.95
2023-05-02T22:38:33.280Z,8.48
2023-05-02T22:41:01.858Z,13.52
2023-05-02T22:43:32.723Z,9.77
2023-05-02T22:46:00.286Z,8.48
2023-05-02T22:48:28.985Z,9.38
2023-05-02T22:50:57.281Z,9.68
2023-05-02T22:53:26.293Z,7.20
2023-05-02T22:55:54.851Z,10.75
2023-05-02T22:58:24.096Z,8.57
2023-05-02T23:00:53.685Z,7.90
2023-05-02T23:03:21.945Z,8.73
2023-05-02T23:05:49.607Z,8.43
2023-05-02T23:08:17.606Z,8.38
2023-05-02T23:10:45.475Z,9.73
2023-05-02T23:13:14.950Z,8.98
2023-05-02T23:15:42.275Z,8.77
2023-05-02T23:18:10.707Z,9.32
2023-05-02T23:20:38.103Z,11.38
2023-05-02T23:23:07.284Z,8.88
2023-05-02T23:25:36.739Z,9.30
2023-05-02T23:28:05.240Z,9.30
2023-05-02T23:30:33.757Z,11.23
2023-05-02T23:33:01.472Z,11.30
2023-05-02T23:35:29.005Z,9.35
2023-05-02T23:38:04.880Z,8.30
2023-05-02T23:40:33.258Z,8.38
2023-05-02T23:43:00.821Z,8.25
2023-05-02T23:45:28.067Z,8.40
2023-05-02T23:47:58.614Z,9.95
2023-05-02T23:50:26.342Z,9.98
2023-05-02T23:52:54.308Z,8.43
2023-05-02T23:55:24.416Z,11.85
2023-05-02T23:57:51.799Z,12.23
